Terminal Aerodrome Forecast
Issued by NWS Norman, OK

Home | Current Version | Previous Version | Text Only | Print | Product List | Glossary On
Versions: 1 2 3 4 5 6 7 8 9 10 11 12 13 14
000
FTUS44 KOUN 161740
TAFOKC
TAF
KOKC 161740Z 1618/1718 24013KT P6SM BKN015
     FM162000 25013KT P6SM BKN027
     FM170000 31008KT P6SM FEW027 SCT250
     FM171300 31006KT 4SM BR SCT007=

USA.gov is the U.S. government's official web portal to all federal, state and local government web resources and services.